Time;durP1;ratioP1;P1;durP2;ratioP2;P2;SDS_P1;SDS_P2;PMS_P1;PMS_P2;Temp;Humidity;BMP_temperature;BMP_pressure;BME280_temperature;BME280_humidity;BME280_pressure;Samples;Min_cycle;Max_cycle;Signal;HPM_P1;HPM_P2
2021/01/15 00:00:46;;;;;;;38.13;20.13;;;1.00;94.30;;;;;;4920095;29;20024;-75
2021/01/15 00:03:12;;;;;;;34.25;17.38;;;0.90;94.20;;;;;;4919756;29;20056;-75
2021/01/15 00:05:40;;;;;;;29.83;15.75;;;0.90;94.80;;;;;;4920014;29;20122;-73
2021/01/15 00:08:06;;;;;;;29.05;15.07;;;0.90;94.30;;;;;;4920628;29;20026;-75
2021/01/15 00:10:32;;;;;;;30.48;14.63;;;0.90;94.60;;;;;;4920224;29;20416;-76
2021/01/15 00:12:58;;;;;;;29.30;14.70;;;0.90;94.70;;;;;;4919871;29;20036;-75
2021/01/15 00:15:24;;;;;;;44.42;19.20;;;0.90;94.50;;;;;;4936771;29;20407;-74
2021/01/15 00:17:49;;;;;;;39.10;19.15;;;0.90;94.70;;;;;;4919007;29;20042;-74
2021/01/15 00:20:15;;;;;;;45.83;22.40;;;0.90;94.70;;;;;;4935468;29;20034;-75
2021/01/15 00:22:42;;;;;;;51.42;24.45;;;0.90;94.60;;;;;;4919019;29;20079;-75
2021/01/15 00:25:10;;;;;;;30.73;16.42;;;0.90;94.60;;;;;;4935099;29;20040;-75
2021/01/15 00:27:43;;;;;;;32.72;17.80;;;0.90;94.30;;;;;;4919659;29;20032;-73
2021/01/15 00:30:10;;;;;;;26.05;14.98;;;0.90;94.40;;;;;;4919156;29;20036;-75
2021/01/15 00:32:37;;;;;;;27.52;14.50;;;0.90;94.10;;;;;;4919341;29;20063;-75
2021/01/15 00:35:05;;;;;;;44.00;19.80;;;0.90;94.80;;;;;;4936036;29;20424;-75
2021/01/15 00:37:31;;;;;;;29.88;15.68;;;0.90;94.10;;;;;;4935993;29;20036;-75
2021/01/15 00:39:57;;;;;;;35.72;18.48;;;0.90;94.80;;;;;;4920245;29;20055;-76
2021/01/15 00:42:22;;;;;;;34.78;16.08;;;0.90;94.10;;;;;;4919418;29;20024;-75
2021/01/15 00:44:48;;;;;;;26.02;13.77;;;0.90;94.30;;;;;;4919007;29;20036;-74
2021/01/15 00:47:14;;;;;;;30.45;16.30;;;1.00;94.70;;;;;;4920264;29;20033;-74
2021/01/15 00:49:40;;;;;;;32.50;16.00;;;1.00;94.50;;;;;;4922668;29;20123;-73
2021/01/15 00:52:06;;;;;;;26.65;15.57;;;0.90;94.20;;;;;;4921907;29;20110;-74
2021/01/15 00:54:32;;;;;;;21.90;12.27;;;0.90;94.00;;;;;;4921954;29;20103;-76
2021/01/15 00:57:04;;;;;;;28.23;15.27;;;0.90;94.30;;;;;;4937018;29;20031;-73
2021/01/15 00:59:30;;;;;;;47.83;22.65;;;0.90;94.00;;;;;;4921929;29;20034;-74
2021/01/15 01:01:56;;;;;;;49.00;22.60;;;0.80;94.20;;;;;;4939387;29;20027;-74
2021/01/15 01:04:21;;;;;;;36.42;18.25;;;0.90;94.50;;;;;;4922976;29;20494;-73
2021/01/15 01:06:47;;;;;;;86.38;35.05;;;0.90;94.50;;;;;;4939141;29;20032;-74
2021/01/15 01:09:13;;;;;;;50.53;22.17;;;0.90;94.10;;;;;;4922676;29;20209;-74
2021/01/15 01:11:38;;;;;;;49.30;22.27;;;0.90;93.70;;;;;;4940052;29;20031;-75
2021/01/15 01:14:05;;;;;;;40.35;19.38;;;0.90;94.20;;;;;;4922473;29;20054;-75
2021/01/15 01:16:31;;;;;;;46.53;19.33;;;0.90;94.30;;;;;;4939618;29;20035;-76
2021/01/15 01:18:57;;;;;;;42.85;20.13;;;0.90;94.80;;;;;;4921950;29;20031;-76
2021/01/15 01:21:24;;;;;;;40.80;18.60;;;0.80;94.00;;;;;;4922010;29;20567;-76
2021/01/15 01:23:50;;;;;;;55.85;24.17;;;0.80;94.20;;;;;;4922194;29;20035;-74
2021/01/15 01:26:17;;;;;;;55.22;24.98;;;0.80;94.10;;;;;;4921610;29;20443;-74
2021/01/15 01:28:43;;;;;;;114.43;49.90;;;0.90;93.80;;;;;;4922111;29;20035;-75
2021/01/15 01:31:15;;;;;;;90.15;45.92;;;0.90;94.10;;;;;;4921718;29;20087;-73
2021/01/15 01:33:42;;;;;;;62.50;36.78;;;0.90;93.90;;;;;;4938724;29;20091;-79
2021/01/15 01:36:09;;;;;;;41.75;24.13;;;0.80;93.80;;;;;;4922642;29;20050;-78
2021/01/15 01:38:36;;;;;;;49.55;24.85;;;0.80;93.70;;;;;;4922143;29;20476;-75
2021/01/15 01:41:02;;;;;;;51.17;22.55;;;0.80;94.10;;;;;;4921983;29;20031;-75
2021/01/15 01:43:28;;;;;;;42.53;19.95;;;0.80;94.30;;;;;;4921405;29;20035;-77
2021/01/15 01:45:54;;;;;;;24.50;13.32;;;0.80;94.20;;;;;;4922271;29;20468;-74
2021/01/15 01:48:21;;;;;;;36.83;18.45;;;0.80;94.30;;;;;;4938996;29;20020;-76
2021/01/15 01:50:48;;;;;;;32.63;16.00;;;0.80;94.20;;;;;;4922143;29;20034;-76
2021/01/15 01:53:18;;;;;;;24.50;13.77;;;0.80;94.70;;;;;;4921672;29;20134;-77
2021/01/15 01:55:45;;;;;;;30.30;15.18;;;0.80;94.40;;;;;;4921151;29;20383;-74
2021/01/15 01:58:13;;;;;;;31.88;15.88;;;0.80;94.00;;;;;;4919976;29;20385;-76
2021/01/15 02:00:40;;;;;;;23.80;13.57;;;0.80;93.70;;;;;;4938666;29;20028;-75
2021/01/15 02:03:07;;;;;;;29.08;15.68;;;0.80;93.80;;;;;;4921594;29;20464;-75
2021/01/15 02:05:33;;;;;;;33.53;16.80;;;0.80;94.30;;;;;;4922408;29;20106;-76
2021/01/15 02:07:59;;;;;;;28.17;14.57;;;0.80;94.10;;;;;;4920791;29;20432;-73
2021/01/15 02:10:51;;;;;;;25.42;14.02;;;0.70;94.10;;;;;;4938491;29;20111;-76
2021/01/15 02:13:39;;;;;;;29.15;15.00;;;0.80;94.60;;;;;;4902927;29;20062;-76
2021/01/15 02:16:12;;;;;;;31.00;14.90;;;0.70;94.40;;;;;;4937500;29;20028;-76
2021/01/15 02:19:07;;;;;;;29.95;16.15;;;0.80;94.40;;;;;;4937327;29;20027;-77
2021/01/15 02:21:45;;;;;;;44.90;21.70;;;0.80;94.40;;;;;;4897554;29;20484;-75
2021/01/15 02:24:35;;;;;;;41.30;19.30;;;0.80;93.80;;;;;;4936700;29;20027;-75
2021/01/15 02:27:29;;;;;;;42.83;21.25;;;0.70;93.70;;;;;;4936866;29;20023;-75
2021/01/15 02:30:03;;;;;;;54.17;25.52;;;0.80;94.60;;;;;;4937905;29;20019;-76
2021/01/15 02:32:38;;;;;;;55.13;25.23;;;0.80;94.30;;;;;;4935929;29;20039;-75
2021/01/15 02:35:23;;;;;;;81.05;32.95;;;0.70;93.70;;;;;;4936580;29;20075;-75
2021/01/15 02:37:54;;;;;;;50.70;23.27;;;0.80;93.90;;;;;;4919494;29;20036;-74
2021/01/15 02:40:32;;;;;;;50.42;25.52;;;0.80;94.30;;;;;;4937618;29;20050;-74
2021/01/15 02:43:02;;;;;;;49.47;24.77;;;0.80;94.10;;;;;;4919393;29;20079;-76
2021/01/15 02:45:29;;;;;;;43.47;22.75;;;0.80;94.40;;;;;;4920560;29;20178;-75
2021/01/15 02:47:59;;;;;;;49.40;22.77;;;0.80;94.10;;;;;;4920866;29;20086;-75
2021/01/15 02:50:26;;;;;;;48.30;22.02;;;0.80;94.50;;;;;;4920190;29;20024;-75
2021/01/15 02:52:56;;;;;;;32.05;15.63;;;0.80;94.10;;;;;;4920456;29;20384;-74
2021/01/15 02:55:23;;;;;;;55.22;22.77;;;0.70;93.90;;;;;;4920279;29;20060;-74
2021/01/15 02:57:50;;;;;;;45.85;20.45;;;0.80;94.50;;;;;;4919676;29;20042;-72
2021/01/15 03:00:19;;;;;;;55.53;22.77;;;0.70;94.40;;;;;;4919554;29;20031;-75
2021/01/15 03:03:03;;;;;;;53.38;23.63;;;0.70;94.50;;;;;;4919230;29;20079;-74
2021/01/15 03:05:43;;;;;;;42.70;18.60;;;0.70;94.20;;;;;;4935884;29;20059;-77
2021/01/15 03:08:12;;;;;;;51.00;20.70;;;0.70;94.50;;;;;;4937633;29;20107;-75
2021/01/15 03:10:40;;;;;;;62.22;24.30;;;0.80;94.40;;;;;;4936421;29;20039;-76
2021/01/15 03:13:06;;;;;;;51.38;21.95;;;0.80;94.30;;;;;;4919837;29;20024;-74
2021/01/15 03:15:36;;;;;;;41.20;21.30;;;0.80;94.40;;;;;;4918987;29;20055;-76
2021/01/15 03:18:03;;;;;;;41.00;18.77;;;0.80;94.10;;;;;;4920511;29;20028;-76
2021/01/15 03:20:30;;;;;;;31.10;15.50;;;0.80;94.30;;;;;;4919892;29;20027;-76
2021/01/15 03:22:57;;;;;;;27.10;14.23;;;0.80;94.10;;;;;;4919994;29;20023;-74
2021/01/15 03:25:23;;;;;;;31.58;15.77;;;0.70;94.20;;;;;;4935852;29;20039;-77
2021/01/15 03:27:49;;;;;;;38.90;17.58;;;0.70;94.50;;;;;;4920362;29;20495;-74
2021/01/15 03:30:27;;;;;;;24.02;12.00;;;0.70;94.70;;;;;;4920297;29;20031;-76
2021/01/15 03:32:55;;;;;;;40.35;18.50;;;0.70;93.80;;;;;;4937566;29;20412;-75
2021/01/15 03:35:23;;;;;;;59.38;26.92;;;0.70;94.50;;;;;;4937040;29;20468;-75
2021/01/15 03:37:58;;;;;;;425.92;194.00;;;0.70;94.00;;;;;;4919787;29;20391;-74
2021/01/15 03:40:26;;;;;;;106.70;44.47;;;0.70;94.40;;;;;;4919734;29;20028;-75
2021/01/15 03:42:52;;;;;;;145.05;62.13;;;0.70;94.50;;;;;;4920807;29;20387;-76
2021/01/15 03:45:18;;;;;;;147.95;51.25;;;0.70;94.30;;;;;;4920119;29;20040;-74
2021/01/15 03:47:44;;;;;;;284.38;104.85;;;0.60;93.80;;;;;;4935575;29;20031;-75
2021/01/15 03:50:10;;;;;;;107.82;43.92;;;0.60;94.30;;;;;;4919561;29;20035;-73
2021/01/15 03:52:36;;;;;;;205.68;78.30;;;0.60;94.20;;;;;;4919618;29;20055;-75
2021/01/15 03:55:02;;;;;;;90.82;34.05;;;0.60;94.00;;;;;;4936678;29;20031;-75
2021/01/15 03:57:28;;;;;;;69.30;29.92;;;0.60;94.10;;;;;;4918715;29;20027;-74
2021/01/15 03:59:54;;;;;;;77.50;31.67;;;0.70;94.60;;;;;;4919236;29;20039;-75
2021/01/15 04:02:19;;;;;;;66.82;29.05;;;0.70;94.60;;;;;;4935726;29;20032;-75
2021/01/15 04:04:49;;;;;;;114.20;47.75;;;0.70;94.30;;;;;;4937707;29;20471;-77
2021/01/15 04:07:16;;;;;;;96.95;43.22;;;0.70;94.10;;;;;;4936478;29;20118;-76
2021/01/15 04:09:42;;;;;;;104.30;42.35;;;0.70;94.10;;;;;;4920721;29;20040;-76
2021/01/15 04:12:09;;;;;;;83.03;32.85;;;0.70;94.10;;;;;;4920244;29;20051;-76
2021/01/15 04:14:35;;;;;;;140.35;51.28;;;0.70;94.30;;;;;;4920302;29;20038;-76
2021/01/15 04:17:01;;;;;;;188.68;77.35;;;0.70;94.60;;;;;;4920534;29;20059;-74
2021/01/15 04:19:27;;;;;;;106.53;45.33;;;0.70;94.30;;;;;;4920041;29;20034;-76
2021/01/15 04:21:56;;;;;;;107.15;44.20;;;0.70;94.30;;;;;;4920371;29;20071;-77
2021/01/15 04:24:23;;;;;;;93.00;40.00;;;0.70;94.00;;;;;;4940831;29;20468;-77
2021/01/15 04:26:58;;;;;;;157.07;55.65;;;0.70;94.30;;;;;;4924031;29;20074;-76
2021/01/15 04:29:28;;;;;;;69.30;30.13;;;0.70;94.30;;;;;;4923572;29;20486;-77
2021/01/15 04:31:53;;;;;;;132.30;52.72;;;0.60;94.10;;;;;;4940688;29;20108;-76
2021/01/15 04:34:19;;;;;;;195.50;76.00;;;0.60;94.30;;;;;;4922473;29;20069;-76
2021/01/15 04:36:45;;;;;;;89.05;37.45;;;0.60;94.40;;;;;;4922907;29;20024;-76
2021/01/15 04:39:11;;;;;;;186.43;73.03;;;0.60;94.50;;;;;;4922769;29;20028;-75
2021/01/15 04:41:37;;;;;;;251.40;89.95;;;0.60;94.30;;;;;;4939091;29;20059;-76
2021/01/15 04:44:03;;;;;;;74.05;32.38;;;0.60;94.30;;;;;;4921630;29;20110;-75
2021/01/15 04:46:29;;;;;;;121.53;46.97;;;0.60;94.40;;;;;;4923053;29;20031;-76
2021/01/15 04:48:57;;;;;;;64.75;29.08;;;0.60;94.10;;;;;;4938470;29;20028;-76
2021/01/15 04:51:27;;;;;;;75.97;33.03;;;0.60;93.90;;;;;;4922271;29;20028;-76
2021/01/15 04:54:11;;;;;;;72.07;31.05;;;0.50;93.90;;;;;;4922744;29;20123;-76
2021/01/15 04:57:00;;;;;;;74.70;32.55;;;0.60;94.40;;;;;;4922373;29;20059;-76
2021/01/15 04:59:29;;;;;;;78.70;32.80;;;0.50;93.90;;;;;;4938237;29;20028;-76
2021/01/15 05:02:05;;;;;;;79.47;31.75;;;0.50;94.00;;;;;;4922718;29;20032;-76
2021/01/15 05:04:31;;;;;;;114.53;42.03;;;0.40;93.90;;;;;;4922679;29;20387;-75
2021/01/15 05:07:01;;;;;;;110.05;40.67;;;0.40;94.20;;;;;;4922822;29;20123;-76
2021/01/15 05:09:27;;;;;;;227.45;68.07;;;0.40;94.20;;;;;;4922568;29;20086;-76
2021/01/15 05:11:53;;;;;;;136.38;48.08;;;0.50;94.70;;;;;;4922328;29;20024;-77
2021/01/15 05:14:21;;;;;;;98.10;36.97;;;0.60;94.70;;;;;;4922395;29;20038;-75
2021/01/15 05:16:52;;;;;;;159.02;52.63;;;0.60;94.60;;;;;;4923114;29;20027;-76
2021/01/15 05:19:18;;;;;;;229.50;79.88;;;0.50;94.30;;;;;;4923211;29;20474;-75
2021/01/15 05:21:50;;;;;;;98.05;39.45;;;0.50;94.00;;;;;;4938550;29;20136;-76
2021/01/15 05:24:17;;;;;;;106.47;41.72;;;0.50;94.40;;;;;;4922042;29;20036;-77
2021/01/15 05:26:42;;;;;;;71.18;30.70;;;0.50;94.00;;;;;;4923075;29;20054;-76
2021/01/15 05:29:08;;;;;;;103.97;44.10;;;0.40;93.60;;;;;;4937673;29;20459;-76
2021/01/15 05:31:54;;;;;;;113.20;44.67;;;0.50;93.80;;;;;;4921631;29;20538;-76
2021/01/15 05:34:22;;;;;;;97.25;40.67;;;0.40;93.80;;;;;;4937774;29;20035;-76
2021/01/15 05:36:48;;;;;;;128.18;45.30;;;0.40;93.80;;;;;;4921770;29;20028;-76
2021/01/15 05:39:25;;;;;;;249.75;80.20;;;0.30;93.40;;;;;;4937917;29;20031;-77
2021/01/15 05:42:00;;;;;;;116.70;46.40;;;0.40;93.90;;;;;;4922418;29;20027;-76
2021/01/15 05:44:29;;;;;;;151.00;63.90;;;0.30;93.50;;;;;;4937820;29;20138;-77
2021/01/15 05:46:56;;;;;;;104.78;41.78;;;0.30;93.80;;;;;;4921316;29;20040;-75
2021/01/15 05:49:22;;;;;;;100.45;42.70;;;0.30;94.20;;;;;;4921992;29;20472;-76
2021/01/15 05:51:48;;;;;;;67.72;29.15;;;0.30;94.30;;;;;;4938632;29;20034;-76
2021/01/15 05:54:29;;;;;;;105.10;40.08;;;0.30;94.30;;;;;;4921577;29;20035;-76
2021/01/15 05:56:56;;;;;;;56.92;30.38;;;0.30;93.80;;;;;;4938892;29;20034;-76
2021/01/15 05:59:22;;;;;;;59.00;29.20;;;0.40;93.90;;;;;;4921352;29;20038;-76
2021/01/15 06:01:54;;;;;;;88.20;34.60;;;0.30;94.10;;;;;;4937167;29;20031;-76
2021/01/15 06:04:36;;;;;;;66.47;27.90;;;0.30;94.00;;;;;;4937415;29;20163;-76
2021/01/15 06:07:10;;;;;;;359.15;197.73;;;0.30;93.90;;;;;;4938124;29;20070;-75
2021/01/15 06:09:37;;;;;;;;;;;0.30;93.50;;;;;;4937184;29;20023;-76
2021/01/15 06:12:07;;;;;;;64.43;41.13;;;0.30;94.00;;;;;;4921478;29;20366;-75
2021/01/15 06:14:33;;;;;;;65.60;38.22;;;0.20;93.50;;;;;;4938311;29;20066;-76
2021/01/15 06:17:06;;;;;;;82.28;41.47;;;0.20;94.00;;;;;;4938829;29;20035;-74
2021/01/15 06:19:42;;;;;;;81.68;36.72;;;0.20;94.30;;;;;;4938485;29;20019;-75
2021/01/15 06:22:29;;;;;;;73.93;31.45;;;0.20;93.60;;;;;;4937982;29;20123;-75
2021/01/15 06:25:09;;;;;;;59.22;26.50;;;0.10;93.40;;;;;;4907735;29;20042;-75
2021/01/15 06:27:40;;;;;;;69.70;30.00;;;-0.10;93.30;;;;;;4938771;29;20070;-76
2021/01/15 06:30:17;;;;;;;116.43;65.03;;;-0.10;93.70;;;;;;4937961;29;20024;-74
2021/01/15 06:32:44;;;;;;;654.67;294.70;;;-0.20;93.50;;;;;;4938486;29;20035;-77
2021/01/15 06:35:30;;;;;;;235.30;88.30;;;-0.10;93.60;;;;;;4937379;29;20039;-75
2021/01/15 06:38:06;;;;;;;210.90;72.80;;;-0.20;93.80;;;;;;4920755;29;20035;-75
2021/01/15 06:40:40;;;;;;;357.13;152.13;;;-0.20;94.30;;;;;;4938014;29;20028;-75
2021/01/15 06:43:21;;;;;;;170.30;89.40;;;-0.20;94.20;;;;;;4936107;29;20024;-76
2021/01/15 06:45:54;;;;;;;86.00;41.90;;;-0.10;93.80;;;;;;4937319;29;20027;-76
2021/01/15 06:48:27;;;;;;;78.07;41.40;;;-0.10;93.70;;;;;;4936267;29;20031;-77
2021/01/15 06:50:55;;;;;;;128.65;71.57;;;-0.20;93.20;;;;;;4938056;29;20032;-78
2021/01/15 06:53:41;;;;;;;162.02;79.45;;;-0.30;93.50;;;;;;4937757;29;20039;-77
2021/01/15 06:56:08;;;;;;;107.70;54.70;;;-0.30;93.40;;;;;;4920512;29;20036;-75
2021/01/15 06:58:37;;;;;;;79.85;42.13;;;-0.30;93.40;;;;;;4920553;29;20032;-75
2021/01/15 07:01:03;;;;;;;108.45;59.13;;;-0.30;93.60;;;;;;4936266;29;20456;-76
2021/01/15 07:03:32;;;;;;;122.07;67.15;;;-0.30;93.60;;;;;;4936525;29;20063;-75
2021/01/15 07:05:59;;;;;;;63.85;37.05;;;-0.20;93.40;;;;;;4938574;29;20441;-77
2021/01/15 07:08:27;;;;;;;82.05;41.72;;;-0.20;93.20;;;;;;4921217;29;20043;-76
2021/01/15 07:10:53;;;;;;;73.88;41.10;;;-0.10;94.10;;;;;;4937493;29;20024;-75
2021/01/15 07:13:26;;;;;;;91.03;47.60;;;-0.10;94.00;;;;;;4920551;29;20118;-74
2021/01/15 07:15:54;;;;;;;78.85;40.20;;;-0.10;93.90;;;;;;4936599;29;20027;-76
2021/01/15 07:18:32;;;;;;;55.72;32.67;;;-0.20;93.10;;;;;;4921632;29;20360;-75
2021/01/15 07:21:08;;;;;;;62.90;33.78;;;-0.20;92.90;;;;;;4938194;29;20044;-75
2021/01/15 07:23:54;;;;;;;45.83;25.83;;;-0.30;93.00;;;;;;4921283;29;20134;-76
2021/01/15 07:26:21;;;;;;;43.13;25.85;;;-0.20;93.70;;;;;;4921045;29;20038;-76
2021/01/15 07:28:48;;;;;;;59.90;36.25;;;-0.20;93.20;;;;;;4938040;29;20020;-76
2021/01/15 07:31:23;;;;;;;53.72;33.03;;;-0.10;93.00;;;;;;4937753;29;20036;-75
2021/01/15 07:33:57;;;;;;;67.53;41.58;;;0.00;93.10;;;;;;4939297;29;20034;-75
2021/01/15 07:36:38;;;;;;;73.65;43.35;;;0.10;93.50;;;;;;4922421;29;20024;-75
2021/01/15 07:39:12;;;;;;;62.13;37.42;;;0.30;93.20;;;;;;4938551;29;20031;-76
2021/01/15 07:41:52;;;;;;;45.28;30.38;;;0.40;92.90;;;;;;4922554;29;20032;-76
2021/01/15 07:44:27;;;;;;;70.18;38.38;;;0.40;93.10;;;;;;4938533;29;20543;-76
2021/01/15 07:46:57;;;;;;;65.07;39.17;;;0.50;93.10;;;;;;4937701;29;20039;-75
2021/01/15 07:49:24;;;;;;;95.95;51.10;;;0.50;92.30;;;;;;4939022;29;20032;-77
2021/01/15 07:52:05;;;;;;;91.00;44.45;;;0.50;91.90;;;;;;4939109;29;20423;-76
2021/01/15 07:54:57;;;;;;;93.03;45.13;;;0.50;92.50;;;;;;4938347;29;20058;-76
2021/01/15 07:57:24;;;;;;;98.53;52.65;;;0.50;92.30;;;;;;4939465;29;20091;-75
2021/01/15 07:59:50;;;;;;;80.45;44.33;;;0.50;92.20;;;;;;4924644;29;20036;-76
2021/01/15 08:02:17;;;;;;;95.93;54.10;;;0.60;91.70;;;;;;4925426;29;20495;-75
2021/01/15 08:04:43;;;;;;;72.68;41.75;;;0.60;92.00;;;;;;4924417;29;20044;-75
2021/01/15 08:07:15;;;;;;;91.18;43.90;;;0.60;92.20;;;;;;4956866;29;20034;-76
2021/01/15 08:09:41;;;;;;;82.50;41.10;;;0.60;91.70;;;;;;4960093;29;20062;-74
2021/01/15 08:12:07;;;;;;;64.60;35.78;;;0.70;91.90;;;;;;4959655;29;20158;-75
2021/01/15 08:14:33;;;;;;;76.25;40.78;;;0.70;92.60;;;;;;4959638;29;20070;-75
2021/01/15 08:16:59;;;;;;;87.45;44.10;;;0.70;91.50;;;;;;4959771;29;20483;-76
2021/01/15 08:19:26;;;;;;;160.95;76.07;;;0.80;92.00;;;;;;4959116;29;20059;-75
2021/01/15 08:21:53;;;;;;;112.85;54.08;;;0.80;91.70;;;;;;4958756;29;20048;-77
2021/01/15 08:24:19;;;;;;;99.22;54.58;;;0.80;91.00;;;;;;4959033;29;20035;-76
2021/01/15 08:26:50;;;;;;;69.25;39.58;;;0.90;91.30;;;;;;4942984;29;20031;-76
2021/01/15 08:29:17;;;;;;;56.78;33.35;;;0.90;91.80;;;;;;4959359;29;20096;-76
2021/01/15 08:31:46;;;;;;;79.00;44.25;;;0.90;91.20;;;;;;4960989;29;20102;-74
2021/01/15 08:34:12;;;;;;;77.40;40.97;;;1.00;91.30;;;;;;4958914;29;20032;-76
2021/01/15 08:36:48;;;;;;;107.95;54.33;;;1.10;91.30;;;;;;4959754;29;20085;-75
2021/01/15 08:39:14;;;;;;;98.28;50.15;;;1.10;90.80;;;;;;4959704;29;20031;-76
2021/01/15 08:41:41;;;;;;;106.43;53.25;;;1.30;91.10;;;;;;4958846;29;20487;-75
2021/01/15 08:44:08;;;;;;;100.63;52.97;;;1.40;91.20;;;;;;4958901;29;20129;-75
2021/01/15 08:46:37;;;;;;;76.72;41.55;;;1.60;91.10;;;;;;4958706;29;20042;-76
2021/01/15 08:49:10;;;;;;;67.85;35.17;;;1.80;91.00;;;;;;4958395;29;20459;-76
2021/01/15 08:51:38;;;;;;;88.13;44.10;;;1.80;90.20;;;;;;4960609;29;20062;-75
2021/01/15 08:54:09;;;;;;;117.75;61.65;;;2.00;90.50;;;;;;4964738;29;20038;-75
2021/01/15 08:56:40;;;;;;;115.57;53.17;;;2.20;89.30;;;;;;4966307;29;20031;-75
2021/01/15 08:59:11;;;;;;;75.00;37.40;;;2.40;90.60;;;;;;4960510;29;20039;-75
2021/01/15 09:01:43;;;;;;;102.65;49.20;;;2.60;89.90;;;;;;4960107;29;20122;-77
2021/01/15 09:04:11;;;;;;;94.68;44.35;;;2.80;86.30;;;;;;4959612;29;20043;-75
2021/01/15 09:06:38;;;;;;;68.80;35.42;;;3.00;85.80;;;;;;4960087;29;20060;-75
2021/01/15 09:09:09;;;;;;;67.72;37.90;;;2.90;86.40;;;;;;4958416;28;20035;-75
2021/01/15 09:11:38;;;;;;;79.03;39.78;;;3.20;87.60;;;;;;4960082;29;20027;-76
2021/01/15 09:14:05;;;;;;;68.25;36.72;;;3.70;90.60;;;;;;4920401;29;20467;-74
2021/01/15 09:16:32;;;;;;;83.03;43.45;;;4.20;89.80;;;;;;4920194;29;20028;-74
2021/01/15 09:19:08;;;;;;;59.25;31.52;;;4.40;86.10;;;;;;4928041;29;20031;-74
2021/01/15 09:21:45;;;;;;;52.10;28.75;;;3.90;83.30;;;;;;4933799;29;20458;-74
2021/01/15 09:24:11;;;;;;;55.85;30.30;;;3.70;83.10;;;;;;4935088;29;20023;-74
2021/01/15 09:26:37;;;;;;;60.10;30.60;;;3.70;82.50;;;;;;4940231;29;20045;-74
2021/01/15 09:29:03;;;;;;;50.10;26.90;;;3.80;81.20;;;;;;4921300;29;20024;-74
2021/01/15 09:31:28;;;;;;;58.25;29.58;;;4.10;81.80;;;;;;4942725;29;20060;-73
2021/01/15 09:33:54;;;;;;;58.13;30.65;;;4.30;85.10;;;;;;4936574;29;20474;-74
2021/01/15 09:36:25;;;;;;;56.08;32.28;;;4.50;85.50;;;;;;4937852;29;20026;-74
2021/01/15 09:38:53;;;;;;;58.33;29.75;;;5.00;82.70;;;;;;4920245;29;20431;-74
2021/01/15 09:41:19;;;;;;;42.25;24.88;;;4.90;76.50;;;;;;4945169;29;20037;-73
2021/01/15 09:43:44;;;;;;;42.03;24.70;;;5.10;78.40;;;;;;4945261;29;20027;-74
2021/01/15 09:46:24;;;;;;;40.63;25.88;;;5.10;78.90;;;;;;4945678;29;20036;-73
2021/01/15 09:48:52;;;;;;;40.35;23.30;;;5.30;76.30;;;;;;4941525;29;20445;-74
2021/01/15 09:51:27;;;;;;;37.10;22.23;;;5.80;72.80;;;;;;4935405;29;20020;-73
2021/01/15 09:53:55;;;;;;;42.97;26.45;;;5.50;72.60;;;;;;4923351;29;20031;-74
2021/01/15 09:56:40;;;;;;;47.72;26.98;;;5.70;79.80;;;;;;4940574;29;20050;-74
2021/01/15 09:59:08;;;;;;;56.25;32.03;;;6.10;71.30;;;;;;4944381;29;20028;-75
2021/01/15 10:01:35;;;;;;;59.65;31.92;;;6.60;76.70;;;;;;4947799;29;20098;-73
2021/01/15 10:04:00;;;;;;;56.92;28.45;;;6.60;73.40;;;;;;4955650;29;20035;-74
2021/01/15 10:06:27;;;;;;;63.42;31.45;;;6.60;74.20;;;;;;4952917;29;20498;-76
2021/01/15 10:08:55;;;;;;;48.78;24.52;;;6.90;75.60;;;;;;4920792;29;20480;-74
2021/01/15 10:11:25;;;;;;;48.67;25.25;;;7.30;68.50;;;;;;4937609;29;20027;-75
2021/01/15 10:14:08;;;;;;;38.75;21.65;;;7.00;73.50;;;;;;4937713;29;20070;-74
2021/01/15 10:16:38;;;;;;;42.67;23.73;;;6.30;64.40;;;;;;4937712;29;20503;-73
2021/01/15 10:19:05;;;;;;;37.95;21.52;;;6.10;68.60;;;;;;4920457;29;20039;-73
2021/01/15 10:21:32;;;;;;;41.05;22.80;;;6.20;74.40;;;;;;4920555;29;20087;-74
2021/01/15 10:23:59;;;;;;;50.65;27.88;;;6.70;71.50;;;;;;4937820;29;20126;-74
2021/01/15 10:26:26;;;;;;;54.83;30.83;;;6.80;71.70;;;;;;4937282;29;20432;-74
2021/01/15 10:28:57;;;;;;;48.85;28.45;;;6.80;70.40;;;;;;4920226;29;20055;-74
2021/01/15 10:31:27;;;;;;;44.25;26.23;;;7.40;70.20;;;;;;4939596;29;20025;-72
2021/01/15 10:33:54;;;;;;;43.67;25.67;;;6.70;69.10;;;;;;4935846;29;20068;-73
2021/01/15 10:36:21;;;;;;;41.20;24.75;;;6.80;75.50;;;;;;4937405;29;20063;-73
2021/01/15 10:38:47;;;;;;;48.60;29.30;;;7.20;71.60;;;;;;4935392;29;20439;-74
2021/01/15 10:41:14;;;;;;;126.10;66.15;;;7.20;68.20;;;;;;4936106;29;20059;-72
2021/01/15 10:43:39;;;;;;;383.20;158.30;;;6.60;65.80;;;;;;4919787;29;20432;-73
2021/01/15 10:46:05;;;;;;;89.00;40.63;;;6.50;69.50;;;;;;4919572;29;20028;-73
2021/01/15 10:48:31;;;;;;;141.15;86.00;;;6.00;68.80;;;;;;4919985;29;20027;-73
2021/01/15 10:50:57;;;;;;;100.85;63.22;;;5.90;71.20;;;;;;4937123;29;20107;-74
2021/01/15 10:53:23;;;;;;;116.80;70.47;;;5.80;68.80;;;;;;4937245;29;20036;-72
2021/01/15 10:55:49;;;;;;;129.57;67.25;;;5.60;71.60;;;;;;4937070;29;20031;-73
2021/01/15 10:58:16;;;;;;;95.03;51.25;;;5.90;76.70;;;;;;4935767;29;20069;-73
2021/01/15 11:00:42;;;;;;;71.28;39.33;;;6.00;77.50;;;;;;4937499;29;20106;-73
2021/01/15 11:03:08;;;;;;;41.05;23.95;;;6.60;78.20;;;;;;4918947;29;20036;-74
2021/01/15 11:05:34;;;;;;;47.78;27.00;;;6.50;68.60;;;;;;4919528;29;20155;-72
2021/01/15 11:07:59;;;;;;;56.05;29.90;;;6.70;73.00;;;;;;4935373;29;20032;-73
2021/01/15 11:10:25;;;;;;;53.67;29.42;;;6.70;70.50;;;;;;4919762;29;20028;-72
2021/01/15 11:12:56;;;;;;;68.50;36.00;;;7.30;75.70;;;;;;4935541;29;20423;-73
2021/01/15 11:15:22;;;;;;;51.45;29.02;;;7.60;64.70;;;;;;4919652;29;20035;-73
2021/01/15 11:17:47;;;;;;;62.55;36.05;;;7.10;66.90;;;;;;4936706;29;20476;-73
2021/01/15 11:20:13;;;;;;;62.50;38.05;;;6.70;68.10;;;;;;4935716;29;20038;-73
2021/01/15 11:22:39;;;;;;;54.97;32.17;;;6.40;70.50;;;;;;4934843;29;20055;-74
2021/01/15 11:25:05;;;;;;;60.42;36.13;;;6.20;71.00;;;;;;4920082;29;20054;-75
2021/01/15 11:27:33;;;;;;;57.97;32.20;;;6.10;72.90;;;;;;4919235;29;20043;-74
2021/01/15 11:30:00;;;;;;;66.10;33.95;;;5.70;72.00;;;;;;4936300;29;20055;-74
2021/01/15 11:32:25;;;;;;;64.95;34.88;;;6.00;75.10;;;;;;4936191;29;20091;-74
2021/01/15 11:34:53;;;;;;;65.60;32.97;;;5.90;75.60;;;;;;4919568;29;20035;-73
2021/01/15 11:37:20;;;;;;;39.58;20.40;;;5.80;72.30;;;;;;4935516;29;20027;-73
2021/01/15 11:39:45;;;;;;;71.35;36.63;;;5.00;71.20;;;;;;4937065;29;20396;-73
2021/01/15 11:42:12;;;;;;;72.13;38.38;;;5.50;78.60;;;;;;4936152;29;20031;-72
2021/01/15 11:44:38;;;;;;;79.88;40.90;;;5.80;76.30;;;;;;4919333;29;20411;-73
2021/01/15 11:47:04;;;;;;;98.70;48.35;;;6.30;74.70;;;;;;4936191;29;20065;-74
2021/01/15 11:49:29;;;;;;;90.32;48.95;;;6.90;76.30;;;;;;4934955;29;20055;-73
2021/01/15 11:51:56;;;;;;;74.05;40.42;;;7.80;74.70;;;;;;4936436;29;20103;-74
2021/01/15 11:54:22;;;;;;;50.72;29.70;;;7.50;67.40;;;;;;4936451;29;20028;-73
2021/01/15 11:56:48;;;;;;;75.75;46.13;;;7.10;65.30;;;;;;4936117;29;20412;-73
2021/01/15 11:59:14;;;;;;;47.40;28.95;;;6.50;68.20;;;;;;4919348;29;20042;-73
2021/01/15 12:01:40;;;;;;;40.47;21.55;;;5.70;71.70;;;;;;4936273;29;20028;-74
2021/01/15 12:04:06;;;;;;;42.17;21.17;;;5.40;73.70;;;;;;4934721;29;20132;-72
2021/01/15 12:06:31;;;;;;;23.23;14.25;;;5.20;77.00;;;;;;4919605;29;20083;-74
2021/01/15 12:08:58;;;;;;;29.42;17.23;;;4.90;75.90;;;;;;4936340;29;20038;-73
2021/01/15 12:11:24;;;;;;;36.60;18.45;;;4.60;77.60;;;;;;4918946;29;20416;-74
2021/01/15 12:13:50;;;;;;;41.97;22.27;;;4.30;77.90;;;;;;4934942;29;20032;-73
2021/01/15 12:16:15;;;;;;;79.50;40.47;;;4.10;80.50;;;;;;4936408;29;20114;-73
2021/01/15 12:18:41;;;;;;;52.70;28.73;;;4.10;83.00;;;;;;4934612;29;20034;-73
2021/01/15 12:21:07;;;;;;;52.95;27.60;;;4.00;84.30;;;;;;4918962;29;20047;-72
2021/01/15 12:23:33;;;;;;;93.28;42.38;;;3.80;83.00;;;;;;4918413;29;20530;-74
2021/01/15 12:26:01;;;;;;;67.28;35.67;;;3.70;84.50;;;;;;4943210;29;20035;-73
2021/01/15 12:28:27;;;;;;;51.50;29.02;;;3.60;84.80;;;;;;4919041;29;20032;-72
2021/01/15 12:30:53;;;;;;;66.95;34.20;;;3.50;84.30;;;;;;4935534;29;20139;-74
2021/01/15 12:33:20;;;;;;;47.45;24.90;;;3.60;87.40;;;;;;4919135;29;20024;-73
2021/01/15 12:35:47;;;;;;;171.68;63.30;;;3.50;85.50;;;;;;4935365;29;20028;-77
2021/01/15 12:38:15;;;;;;;58.38;29.92;;;3.40;85.10;;;;;;4937039;29;20028;-73
2021/01/15 12:40:41;;;;;;;57.53;31.48;;;3.50;87.80;;;;;;4919213;29;20035;-73
2021/01/15 12:43:08;;;;;;;79.80;39.15;;;3.60;87.40;;;;;;4919845;29;20127;-74